createdAt,value
2017-08-11T00:01:12.269Z,24.48
2017-08-11T00:03:41.227Z,24.63
2017-08-11T00:06:10.210Z,25.25
2017-08-11T00:08:39.268Z,24.02
2017-08-11T00:11:08.221Z,25.58
2017-08-11T00:13:37.138Z,27.13
2017-08-11T00:16:06.138Z,26.87
2017-08-11T00:18:36.228Z,24.00
2017-08-11T00:21:05.179Z,27.20
2017-08-11T00:23:34.187Z,24.85
2017-08-11T00:26:03.602Z,24.67
2017-08-11T00:28:33.111Z,23.87
2017-08-11T00:31:02.984Z,24.48
2017-08-11T00:33:31.971Z,26.10
2017-08-11T00:36:01.219Z,24.73
2017-08-11T00:38:30.180Z,24.67
2017-08-11T00:40:59.494Z,24.97
2017-08-11T00:43:28.456Z,25.00
2017-08-11T00:45:57.359Z,24.20
2017-08-11T00:48:26.303Z,24.65
2017-08-11T00:50:56.038Z,26.80
2017-08-11T00:53:25.049Z,25.73
2017-08-11T00:55:53.986Z,25.35
2017-08-11T00:58:22.943Z,24.08
2017-08-11T01:00:51.869Z,25.20
2017-08-11T01:03:20.764Z,25.05
2017-08-11T01:05:49.676Z,24.95
2017-08-11T01:08:18.581Z,26.83
2017-08-11T01:10:47.819Z,25.85
2017-08-11T01:13:16.732Z,26.35
2017-08-11T01:18:24.017Z,26.10
2017-08-11T01:20:52.991Z,25.35
2017-08-11T01:23:22.390Z,26.45
2017-08-11T01:25:51.405Z,25.40
2017-08-11T01:28:20.300Z,26.02
2017-08-11T01:30:49.368Z,28.10
2017-08-11T01:33:18.436Z,25.00
2017-08-11T01:35:47.430Z,25.73
2017-08-11T01:38:16.334Z,25.80
2017-08-11T01:40:45.539Z,25.48
2017-08-11T01:43:14.492Z,25.73
2017-08-11T01:45:43.507Z,24.77
2017-08-11T01:48:12.435Z,25.55
2017-08-11T01:50:42.208Z,24.33
2017-08-11T01:53:11.137Z,25.02
2017-08-11T01:55:40.119Z,25.17
2017-08-11T01:58:09.037Z,22.83
2017-08-11T02:00:37.994Z,24.12
2017-08-11T02:03:06.971Z,24.23
2017-08-11T02:05:36.102Z,24.10
2017-08-11T02:08:05.159Z,24.10
2017-08-11T02:10:34.360Z,21.62
2017-08-11T02:13:03.285Z,21.50
2017-08-11T02:15:32.227Z,21.65
2017-08-11T02:18:01.497Z,23.55
2017-08-11T02:20:30.433Z,21.60
2017-08-11T02:24:02.404Z,21.35
2017-08-11T02:26:31.599Z,20.37
2017-08-11T02:29:00.503Z,20.00
2017-08-11T02:31:29.712Z,21.17
2017-08-11T02:33:58.712Z,20.37
2017-08-11T02:37:47.456Z,20.10
2017-08-11T02:40:16.858Z,21.00
2017-08-11T02:42:46.075Z,21.20
2017-08-11T02:45:15.277Z,19.65
2017-08-11T02:47:44.496Z,19.20
2017-08-11T02:50:14.454Z,18.23
2017-08-11T02:52:43.359Z,19.10
2017-08-11T02:55:12.247Z,19.30
2017-08-11T02:57:41.174Z,20.02
2017-08-11T03:00:10.101Z,16.73
2017-08-11T03:02:38.998Z,17.83
2017-08-11T03:05:07.948Z,17.10
2017-08-11T03:07:36.892Z,15.80
2017-08-11T03:10:05.808Z,15.88
2017-08-11T03:13:54.266Z,15.57
2017-08-11T03:16:23.363Z,17.67
2017-08-11T03:18:52.463Z,15.55
2017-08-11T03:21:21.791Z,14.95
2017-08-11T03:23:50.723Z,13.25
2017-08-11T03:26:19.663Z,15.88
2017-08-11T03:28:48.643Z,14.75
2017-08-11T03:31:17.557Z,14.52
2017-08-11T03:33:46.547Z,14.95
2017-08-11T03:36:15.754Z,14.15
2017-08-11T03:40:04.052Z,14.77
2017-08-11T03:42:32.975Z,12.07
2017-08-11T03:45:02.126Z,12.27
2017-08-11T03:47:31.139Z,14.35
2017-08-11T03:50:00.063Z,13.82
2017-08-11T03:52:29.976Z,12.02
2017-08-11T03:54:58.906Z,11.40
2017-08-11T03:57:27.827Z,12.20
2017-08-11T03:59:56.778Z,11.55
2017-08-11T04:02:25.700Z,12.25
2017-08-11T04:04:54.639Z,11.43
2017-08-11T04:07:23.580Z,12.25
2017-08-11T04:09:52.454Z,9.60
2017-08-11T04:12:21.365Z,9.32
2017-08-11T04:14:50.440Z,9.95
2017-08-11T04:17:19.363Z,10.32
2017-08-11T04:19:48.289Z,9.70
2017-08-11T04:22:17.236Z,10.23
2017-08-11T04:24:46.165Z,8.57
2017-08-11T04:27:15.102Z,8.98
2017-08-11T04:29:44.000Z,8.73
2017-08-11T04:32:12.926Z,8.80
2017-08-11T04:34:41.975Z,8.55
2017-08-11T04:37:10.876Z,9.20
2017-08-11T04:39:39.816Z,8.90
2017-08-11T04:42:08.854Z,9.20
2017-08-11T04:44:37.862Z,10.02
2017-08-11T04:47:07.039Z,9.27
2017-08-11T04:49:39.379Z,8.77
2017-08-11T04:52:08.270Z,8.38
2017-08-11T04:54:37.208Z,8.40
2017-08-11T04:57:06.096Z,8.35
2017-08-11T04:59:35.023Z,8.13
2017-08-11T05:02:04.439Z,7.65
2017-08-11T05:04:33.461Z,7.65
2017-08-11T05:07:02.379Z,8.02
2017-08-11T05:09:31.330Z,8.13
2017-08-11T05:12:00.283Z,6.93
2017-08-11T05:14:29.245Z,7.30
2017-08-11T05:16:58.229Z,7.60
2017-08-11T05:19:27.213Z,7.90
2017-08-11T05:21:56.139Z,8.18
2017-08-11T05:24:25.074Z,7.70
2017-08-11T05:26:54.008Z,7.65
2017-08-11T05:29:22.933Z,9.00
2017-08-11T05:31:51.913Z,8.40
2017-08-11T05:34:20.862Z,7.93
2017-08-11T05:36:49.928Z,8.20
2017-08-11T05:39:18.891Z,7.10
2017-08-11T05:41:47.863Z,8.48
2017-08-11T05:44:16.862Z,8.27
2017-08-11T05:46:46.068Z,7.20
2017-08-11T05:49:15.087Z,7.53
2017-08-11T05:51:44.032Z,7.53
2017-08-11T05:54:14.166Z,8.02
2017-08-11T05:56:43.209Z,6.90
2017-08-11T05:59:12.223Z,6.85
2017-08-11T06:01:41.154Z,5.95
2017-08-11T06:04:10.264Z,6.12
2017-08-11T06:06:39.406Z,6.45
2017-08-11T06:09:08.417Z,5.20
2017-08-11T06:11:37.375Z,6.10
2017-08-11T06:14:06.298Z,6.10
2017-08-11T06:16:35.265Z,6.35
2017-08-11T06:19:04.194Z,6.35
2017-08-11T06:21:33.118Z,5.40
2017-08-11T06:24:02.142Z,5.85
2017-08-11T06:26:31.414Z,5.95
2017-08-11T06:29:00.329Z,5.32
2017-08-11T06:31:29.315Z,5.40
2017-08-11T06:33:58.264Z,5.78
2017-08-11T06:36:27.268Z,4.47
2017-08-11T06:38:56.232Z,5.30
2017-08-11T06:41:25.191Z,5.25
2017-08-11T06:43:54.104Z,5.12
2017-08-11T06:46:23.068Z,5.62
2017-08-11T06:48:52.531Z,4.37
2017-08-11T06:51:21.459Z,4.97
2017-08-11T06:53:50.496Z,4.70
2017-08-11T06:56:19.435Z,4.40
2017-08-11T06:58:48.502Z,4.93
2017-08-11T07:01:18.343Z,4.85
2017-08-11T07:03:47.343Z,4.65
2017-08-11T07:06:18.430Z,4.93
2017-08-11T07:08:47.453Z,4.35
2017-08-11T07:11:16.373Z,4.75
2017-08-11T07:13:45.379Z,4.75
2017-08-11T07:16:14.394Z,4.35
2017-08-11T07:18:43.403Z,5.45
2017-08-11T07:21:12.352Z,4.87
2017-08-11T07:23:41.292Z,4.62
2017-08-11T07:26:10.296Z,4.80
2017-08-11T07:28:39.422Z,4.87
2017-08-11T07:31:08.430Z,4.55
2017-08-11T07:33:37.356Z,5.30
2017-08-11T07:36:06.407Z,5.03
2017-08-11T07:38:35.436Z,4.57
2017-08-11T07:41:04.444Z,5.00
2017-08-11T07:43:33.790Z,7.03
2017-08-11T07:46:03.655Z,7.25
2017-08-11T07:48:33.150Z,8.30
2017-08-11T07:51:02.040Z,8.82
2017-08-11T07:53:31.240Z,9.00
2017-08-11T07:56:00.318Z,7.85
2017-08-11T07:58:29.399Z,6.82
2017-08-11T08:00:58.445Z,6.37
2017-08-11T08:03:27.442Z,6.90
2017-08-11T08:05:56.421Z,6.30
2017-08-11T08:08:25.503Z,6.45
2017-08-11T08:10:54.495Z,7.20
2017-08-11T08:13:23.760Z,7.40
2017-08-11T08:15:52.770Z,7.40
2017-08-11T08:18:26.655Z,7.07
2017-08-11T08:21:09.815Z,7.80
2017-08-11T08:23:38.766Z,7.82
2017-08-11T08:26:07.790Z,7.12
2017-08-11T08:28:36.782Z,6.87
2017-08-11T08:31:05.813Z,7.22
2017-08-11T08:33:35.647Z,6.65
2017-08-11T08:36:04.685Z,7.37
2017-08-11T08:38:37.244Z,7.05
2017-08-11T08:41:06.214Z,6.80
2017-08-11T08:43:35.507Z,7.03
2017-08-11T08:46:04.551Z,7.62
2017-08-11T08:48:33.576Z,7.30
2017-08-11T08:51:02.560Z,7.72
2017-08-11T08:53:31.550Z,8.15
2017-08-11T08:56:00.653Z,7.65
2017-08-11T08:58:30.375Z,7.10
2017-08-11T09:00:59.405Z,8.18
2017-08-11T09:03:44.003Z,6.80
2017-08-11T09:06:12.996Z,7.35
2017-08-11T09:08:42.070Z,7.00
2017-08-11T09:11:11.483Z,7.40
2017-08-11T09:13:40.593Z,6.70
2017-08-11T09:16:09.574Z,6.87
2017-08-11T09:18:40.859Z,6.90
2017-08-11T09:21:09.950Z,7.85
2017-08-11T09:23:39.784Z,6.62
2017-08-11T09:30:24.428Z,7.03
2017-08-11T09:37:08.219Z,6.30
2017-08-11T09:39:37.252Z,6.62
2017-08-11T09:42:06.228Z,7.70
2017-08-11T09:44:35.275Z,6.90
2017-08-11T09:49:42.369Z,6.07
2017-08-11T09:52:11.396Z,5.15
2017-08-11T09:54:40.459Z,5.75
2017-08-11T09:57:09.511Z,5.03
2017-08-11T09:59:38.520Z,6.30
2017-08-11T10:02:07.553Z,5.40
2017-08-11T10:04:37.471Z,5.10
2017-08-11T10:07:06.983Z,5.80
2017-08-11T10:09:37.503Z,4.65
2017-08-11T10:12:06.519Z,5.82
2017-08-11T10:14:35.878Z,5.37
2017-08-11T10:17:04.902Z,4.80
2017-08-11T10:19:33.939Z,4.70
2017-08-11T10:22:02.972Z,5.40
2017-08-11T10:24:31.996Z,4.82
2017-08-11T10:27:01.053Z,4.78
2017-08-11T10:29:30.088Z,4.95
2017-08-11T10:31:59.195Z,4.60
2017-08-11T10:34:28.206Z,4.80
2017-08-11T10:36:57.213Z,4.37
2017-08-11T10:39:26.159Z,4.70
2017-08-11T10:41:55.147Z,4.68
2017-08-11T10:44:24.131Z,4.80
2017-08-11T10:46:54.149Z,5.00
2017-08-11T10:49:23.127Z,5.20
2017-08-11T10:51:52.125Z,5.53
2017-08-11T10:54:21.238Z,5.20
2017-08-11T10:56:50.301Z,6.25
2017-08-11T10:59:19.419Z,5.72
2017-08-11T11:01:48.653Z,6.00
2017-08-11T11:04:17.697Z,6.97
2017-08-11T11:06:46.633Z,5.30
2017-08-11T11:09:15.634Z,5.20
2017-08-11T11:11:44.651Z,6.62
2017-08-11T11:14:13.591Z,6.28
2017-08-11T11:16:50.672Z,5.75
2017-08-11T11:19:19.686Z,5.87
2017-08-11T11:21:49.725Z,5.95
2017-08-11T11:24:18.854Z,5.20
2017-08-11T11:26:47.960Z,5.90
2017-08-11T11:29:19.415Z,4.95
2017-08-11T11:31:49.671Z,5.00
2017-08-11T11:34:18.825Z,4.28
2017-08-11T11:36:47.967Z,4.90
2017-08-11T11:39:17.010Z,4.80
2017-08-11T11:41:46.083Z,4.75
2017-08-11T11:44:15.759Z,5.60
2017-08-11T11:46:45.331Z,5.78
2017-08-11T11:49:14.394Z,6.20
2017-08-11T11:51:44.383Z,6.57
2017-08-11T11:54:13.464Z,6.80
2017-08-11T11:56:42.480Z,6.40
2017-08-11T11:59:11.700Z,5.90
2017-08-11T12:01:40.830Z,6.28
2017-08-11T12:04:09.922Z,6.57
2017-08-11T12:06:39.090Z,6.75
2017-08-11T12:09:08.210Z,6.97
2017-08-11T12:11:37.390Z,5.22
2017-08-11T12:14:06.475Z,6.43
2017-08-11T12:16:35.368Z,6.28
2017-08-11T12:19:04.632Z,6.15
2017-08-11T12:21:33.988Z,5.30
2017-08-11T12:24:03.074Z,5.10
2017-08-11T12:26:32.071Z,5.12
2017-08-11T12:29:01.142Z,5.97
2017-08-11T12:31:30.334Z,5.85
2017-08-11T12:33:59.425Z,5.57
2017-08-11T12:36:29.167Z,4.85
2017-08-11T12:38:58.168Z,4.85
2017-08-11T12:41:27.166Z,4.55
2017-08-11T12:43:56.211Z,4.03
2017-08-11T12:46:25.299Z,4.10
2017-08-11T12:48:54.317Z,3.60
2017-08-11T12:51:23.320Z,3.55
2017-08-11T12:53:53.450Z,3.65
2017-08-11T12:56:22.392Z,3.80
2017-08-11T12:58:51.730Z,3.37
2017-08-11T13:01:28.395Z,3.67
2017-08-11T13:03:57.753Z,3.65
2017-08-11T13:06:26.921Z,3.60
2017-08-11T13:08:56.086Z,3.05
2017-08-11T13:11:25.153Z,3.00
2017-08-11T13:13:54.867Z,3.10
2017-08-11T13:16:23.994Z,3.10
2017-08-11T13:18:52.957Z,3.10
2017-08-11T13:21:22.283Z,3.50
2017-08-11T13:23:51.627Z,2.85
2017-08-11T13:26:20.818Z,3.15
2017-08-11T13:28:49.895Z,2.55
2017-08-11T13:31:19.079Z,2.15
2017-08-11T13:33:49.123Z,1.83
2017-08-11T13:36:18.170Z,1.83
2017-08-11T13:38:47.351Z,1.60
2017-08-11T13:41:30.973Z,1.40
2017-08-11T13:44:00.155Z,1.55
2017-08-11T13:46:29.206Z,1.67
2017-08-11T13:48:58.549Z,1.50
2017-08-11T13:51:27.696Z,1.45
2017-08-11T13:53:56.954Z,1.20
2017-08-11T13:56:26.146Z,1.40
2017-08-11T13:58:55.409Z,1.48
2017-08-11T14:01:25.413Z,1.67
2017-08-11T14:03:54.772Z,1.40
2017-08-11T14:06:30.204Z,1.45
2017-08-11T14:09:00.276Z,1.80
2017-08-11T14:11:29.522Z,1.42
2017-08-11T14:13:59.054Z,1.45
2017-08-11T14:16:28.161Z,1.65
2017-08-11T14:18:58.575Z,1.52
2017-08-11T14:21:29.334Z,1.80
2017-08-11T14:24:02.548Z,1.67
2017-08-11T14:26:31.781Z,1.85
2017-08-11T14:29:00.948Z,1.75
2017-08-11T14:31:34.723Z,1.87
2017-08-11T14:34:04.143Z,1.83
2017-08-11T14:36:33.167Z,1.60
2017-08-11T14:39:02.322Z,1.90
2017-08-11T14:41:31.465Z,1.85
2017-08-11T14:44:00.753Z,1.80
2017-08-11T14:46:29.783Z,1.67
2017-08-11T14:48:59.259Z,2.00
2017-08-11T14:51:28.363Z,1.60
2017-08-11T14:53:58.183Z,1.62
2017-08-11T14:56:27.300Z,1.55
2017-08-11T14:58:56.336Z,1.42
2017-08-11T15:01:30.275Z,1.50
2017-08-11T15:04:00.971Z,1.60
2017-08-11T15:06:29.987Z,1.42
2017-08-11T15:08:59.094Z,1.50
2017-08-11T15:11:28.313Z,1.95
2017-08-11T15:13:58.232Z,1.50
2017-08-11T15:16:27.243Z,1.70
2017-08-11T15:18:56.290Z,1.40
2017-08-11T15:21:25.319Z,1.40
2017-08-11T15:23:54.352Z,1.27
2017-08-11T15:26:23.449Z,1.50
2017-08-11T15:28:52.575Z,1.20
2017-08-11T15:31:21.736Z,1.20
2017-08-11T15:33:52.819Z,1.73
2017-08-11T15:36:22.080Z,1.48
2017-08-11T15:38:55.412Z,1.58
2017-08-11T15:41:24.455Z,1.55
2017-08-11T15:43:53.531Z,1.55
2017-08-11T15:46:22.713Z,1.73
2017-08-11T15:48:53.082Z,1.25
2017-08-11T15:51:22.175Z,1.17
2017-08-11T15:53:51.355Z,1.20
2017-08-11T15:56:22.140Z,1.17
2017-08-11T15:58:51.248Z,1.10
2017-08-11T16:01:20.258Z,1.20
2017-08-11T16:03:50.402Z,1.30
2017-08-11T16:06:21.656Z,1.15
2017-08-11T16:08:50.657Z,1.10
2017-08-11T16:11:19.741Z,1.50
2017-08-11T16:13:48.902Z,1.40
2017-08-11T16:16:17.963Z,1.10
2017-08-11T16:18:47.143Z,1.10
2017-08-11T16:21:20.112Z,1.60
2017-08-11T16:23:49.211Z,1.70
2017-08-11T16:26:19.708Z,1.40
2017-08-11T16:28:48.762Z,1.20
2017-08-11T16:31:17.827Z,1.30
2017-08-11T16:33:46.880Z,1.80
2017-08-11T16:36:16.631Z,1.70
2017-08-11T16:38:46.612Z,1.60
2017-08-11T16:41:15.580Z,1.70
2017-08-11T16:43:44.831Z,1.87
2017-08-11T16:46:13.923Z,2.35
2017-08-11T16:48:42.928Z,2.00
2017-08-11T16:51:12.775Z,1.80
2017-08-11T16:53:43.017Z,1.70
2017-08-11T16:56:12.060Z,1.83
2017-08-11T16:58:41.217Z,2.35
2017-08-11T17:01:10.283Z,2.00
2017-08-11T17:03:42.652Z,2.15
2017-08-11T17:06:11.727Z,2.03
2017-08-11T17:08:40.868Z,1.83
2017-08-11T17:11:10.016Z,2.50
2017-08-11T17:13:40.020Z,1.65
2017-08-11T17:16:09.115Z,2.10
2017-08-11T17:18:38.200Z,1.87
2017-08-11T17:21:07.333Z,1.90
2017-08-11T17:23:36.477Z,1.90
2017-08-11T17:26:05.506Z,2.10
2017-08-11T17:28:36.168Z,2.00
2017-08-11T17:31:05.106Z,2.10
2017-08-11T17:33:34.168Z,2.03
2017-08-11T17:36:03.494Z,2.25
2017-08-11T17:38:33.266Z,2.83
2017-08-11T17:41:02.860Z,2.40
2017-08-11T17:43:32.927Z,2.78
2017-08-11T17:46:05.021Z,2.58
2017-08-11T17:48:34.241Z,2.45
2017-08-11T17:51:04.128Z,2.78
2017-08-11T17:53:33.597Z,2.50
2017-08-11T17:56:02.868Z,3.37
2017-08-11T17:58:33.117Z,3.10
2017-08-11T18:01:03.610Z,3.10
2017-08-11T18:03:32.806Z,3.47
2017-08-11T18:06:02.314Z,3.35
2017-08-11T18:08:31.517Z,3.37
2017-08-11T18:11:00.613Z,3.30
2017-08-11T18:13:29.692Z,3.30
2017-08-11T18:16:02.333Z,3.65
2017-08-11T18:18:31.336Z,3.90
2017-08-11T18:21:00.404Z,4.03
2017-08-11T18:23:30.432Z,3.50
2017-08-11T18:26:00.642Z,4.68
2017-08-11T18:28:30.573Z,4.12
2017-08-11T18:30:59.666Z,3.10
2017-08-11T18:33:29.783Z,3.12
2017-08-11T18:35:59.211Z,3.45
2017-08-11T18:38:28.488Z,3.42
2017-08-11T18:40:58.546Z,3.78
2017-08-11T18:43:27.694Z,3.50
2017-08-11T18:45:57.692Z,4.10
2017-08-11T18:48:27.800Z,4.30
2017-08-11T18:50:57.204Z,5.72
2017-08-11T18:53:26.374Z,5.32
2017-08-11T18:55:55.614Z,4.95
2017-08-11T18:58:24.784Z,4.55
2017-08-11T19:00:54.465Z,4.80
2017-08-11T19:03:23.475Z,5.28
2017-08-11T19:05:52.542Z,5.00
2017-08-11T19:08:22.458Z,4.87
2017-08-11T19:10:54.687Z,4.20
2017-08-11T19:13:23.968Z,4.10
2017-08-11T19:15:53.196Z,3.45
2017-08-11T19:18:24.241Z,4.12
2017-08-11T19:20:53.426Z,3.60
2017-08-11T19:23:25.763Z,3.95
2017-08-11T19:25:54.992Z,3.58
2017-08-11T19:28:24.086Z,3.90
2017-08-11T19:30:53.631Z,3.87
2017-08-11T19:33:22.998Z,4.15
2017-08-11T19:35:52.563Z,3.67
2017-08-11T19:38:21.714Z,4.43
2017-08-11T19:40:50.828Z,4.30
2017-08-11T19:43:21.115Z,4.10
2017-08-11T19:45:51.566Z,5.03
2017-08-11T19:48:20.855Z,4.28
2017-08-11T19:50:50.010Z,4.35
2017-08-11T19:53:20.063Z,4.35
2017-08-11T19:55:49.963Z,4.30
2017-08-11T19:58:19.571Z,3.70
2017-08-11T20:00:49.704Z,4.55
2017-08-11T20:03:18.831Z,4.57
2017-08-11T20:05:48.930Z,4.43
2017-08-11T20:08:17.999Z,4.00
2017-08-11T20:10:47.003Z,3.50
2017-08-11T20:13:16.847Z,3.50
2017-08-11T20:15:45.942Z,3.50
2017-08-11T20:18:15.732Z,3.50
2017-08-11T20:20:44.706Z,3.78
2017-08-11T20:23:13.965Z,3.62
2017-08-11T20:25:43.069Z,3.62
2017-08-11T20:28:12.305Z,2.78
2017-08-11T20:30:41.906Z,3.67
2017-08-11T20:33:11.044Z,3.08
2017-08-11T20:35:40.787Z,2.95
2017-08-11T20:38:10.831Z,2.70
2017-08-11T20:40:40.073Z,2.62
2017-08-11T20:43:09.033Z,2.67
2017-08-11T20:45:38.983Z,2.62
2017-08-11T20:48:08.727Z,2.20
2017-08-11T20:50:39.536Z,2.20
2017-08-11T20:53:09.270Z,2.12
2017-08-11T20:55:38.381Z,2.50
2017-08-11T20:58:09.764Z,2.40
2017-08-11T21:00:40.266Z,2.15
2017-08-11T21:03:09.283Z,2.10
2017-08-11T21:05:38.430Z,1.90
2017-08-11T21:08:07.814Z,2.40
2017-08-11T21:10:37.438Z,2.10
2017-08-11T21:13:06.512Z,1.90
2017-08-11T21:15:36.217Z,1.90
2017-08-11T21:18:05.344Z,1.80
2017-08-11T21:20:36.179Z,2.12
2017-08-11T21:23:06.088Z,2.15
2017-08-11T21:25:36.670Z,1.95
2017-08-11T21:28:06.258Z,1.98
2017-08-11T21:30:35.207Z,2.10
2017-08-11T21:33:04.726Z,2.15
2017-08-11T21:35:33.830Z,2.00
2017-08-11T21:38:02.896Z,2.10
2017-08-11T21:40:32.328Z,1.90
2017-08-11T21:43:02.512Z,1.60
2017-08-11T21:45:31.473Z,2.00
2017-08-11T21:48:00.474Z,1.95
2017-08-11T21:50:29.410Z,1.80
2017-08-11T21:52:58.373Z,1.50
2017-08-11T21:55:27.311Z,1.60
2017-08-11T21:57:56.319Z,1.60
2017-08-11T22:00:25.298Z,1.85
2017-08-11T22:02:57.296Z,1.80
2017-08-11T22:05:26.263Z,2.33
2017-08-11T22:07:56.408Z,2.12
2017-08-11T22:10:25.975Z,2.12
2017-08-11T22:12:56.039Z,2.80
2017-08-11T22:15:25.119Z,2.55
2017-08-11T22:17:54.055Z,2.28
2017-08-11T22:20:23.071Z,2.28
2017-08-11T22:22:52.040Z,2.30
2017-08-11T22:25:21.036Z,2.28
2017-08-11T22:27:50.415Z,2.70
2017-08-11T22:30:19.435Z,2.80
2017-08-11T22:32:49.003Z,3.10
2017-08-11T22:35:17.912Z,2.92
2017-08-11T22:37:46.887Z,2.97
2017-08-11T22:40:15.818Z,2.83
2017-08-11T22:42:44.859Z,3.00
2017-08-11T22:45:13.894Z,2.92
2017-08-11T22:47:42.867Z,2.90
2017-08-11T22:50:12.042Z,3.40
2017-08-11T22:52:41.050Z,3.55
2017-08-11T22:55:10.462Z,3.15
2017-08-11T22:57:39.432Z,3.45
2017-08-11T23:00:08.372Z,3.45
2017-08-11T23:02:37.322Z,3.30
2017-08-11T23:05:06.231Z,3.00
2017-08-11T23:07:35.191Z,3.30
2017-08-11T23:10:04.131Z,3.12
2017-08-11T23:12:33.144Z,3.65
2017-08-11T23:15:02.159Z,3.60
2017-08-11T23:17:31.127Z,3.40
2017-08-11T23:20:00.072Z,3.67
2017-08-11T23:22:28.974Z,3.45
2017-08-11T23:24:57.956Z,3.67
2017-08-11T23:27:26.869Z,4.20
2017-08-11T23:29:56.337Z,3.87
2017-08-11T23:32:25.290Z,3.05
2017-08-11T23:34:54.334Z,3.50
2017-08-11T23:37:23.398Z,3.60
2017-08-11T23:39:52.348Z,3.50
2017-08-11T23:42:21.316Z,3.87
2017-08-11T23:44:50.300Z,3.50
2017-08-11T23:47:19.233Z,3.10
2017-08-11T23:49:58.141Z,3.87
2017-08-11T23:52:27.297Z,3.28
2017-08-11T23:54:56.284Z,3.45
2017-08-11T23:57:25.214Z,3.03
2017-08-11T23:59:54.170Z,3.25
